Terminal Aerodrome Forecast
Issued by NWS

Current Version | Previous Version | Graphics & Text | Print | Product List | Glossary On
Versions: 1 2 3 4 5 6 7 8 9 10 11 12 13
018
FTUS41 KPBZ 261845 AAA
TAFMGW
TAF AMD
KMGW 261845Z 2619/2718 21007KT P6SM VCTS BKN040CB
     FM262300 22005KT P6SM BKN100
     FM271000 20002KT 5SM BR BKN250
     FM271300 23008KT P6SM SCT050=

USA.gov is the U.S. government's official web portal to all federal, state and local government web resources and services.